Wilmslow, United Kingdom
Current Conditions -  °F | °C
As of 11:20 AM on Saturday 27 Dec 2014 (Local Time) from EGCC Reporting Station
Rain Showers Rain Showers  
Wind Chill: 37°   Ceiling: Unl
Heat Index: 37°   Visibility: 6mi
Dew Point: 34°   Wind: 2mph
Humidity: 87%   Direction: NA
Pressure: 29.8"   Gusts: NA
Location:  53.32°N, 2.24°W
Report Text: EGCC 271120Z VRB02KT 9999 VCSH SCT007 FEW015CB 03/01 Q1009
Loading
Personal Weather Stations






























Interactive Weather Map New forecast layout! Learn more

10-Day Weather Forecast

Advertisements
Track Severe Weather on mobile